createdAt,value
2022-09-12T00:01:56.313Z,20.13
2022-09-12T00:04:23.720Z,19.60
2022-09-12T00:06:50.850Z,19.44
2022-09-12T00:09:17.969Z,19.65
2022-09-12T00:11:45.743Z,19.65
2022-09-12T00:14:14.408Z,19.38
2022-09-12T00:16:41.737Z,19.30
2022-09-12T00:19:09.432Z,19.84
2022-09-12T00:21:37.208Z,20.10
2022-09-12T00:24:04.575Z,19.83
2022-09-12T00:26:32.009Z,19.60
2022-09-12T00:28:59.173Z,19.66
2022-09-12T00:31:26.581Z,19.40
2022-09-12T00:33:55.552Z,19.02
2022-09-12T00:36:23.787Z,19.89
2022-09-12T00:38:52.031Z,19.88
2022-09-12T00:41:20.597Z,20.29
2022-09-12T00:43:48.892Z,19.74
2022-09-12T00:46:25.185Z,19.80
2022-09-12T00:48:54.485Z,20.56
2022-09-12T00:51:21.588Z,20.97
2022-09-12T00:53:48.866Z,19.99
2022-09-12T00:56:16.497Z,20.71
2022-09-12T00:58:45.227Z,21.17
2022-09-12T01:01:12.451Z,20.74
2022-09-12T01:03:39.923Z,21.25
2022-09-12T01:06:16.939Z,20.06
2022-09-12T01:08:44.679Z,19.02
2022-09-12T01:11:11.827Z,20.14
2022-09-12T01:13:39.067Z,20.65
2022-09-12T01:16:07.537Z,20.70
2022-09-12T01:18:46.905Z,20.58
2022-09-12T01:21:34.839Z,20.28
2022-09-12T01:24:14.800Z,20.18
2022-09-12T01:26:55.076Z,19.54
2022-09-12T01:29:35.831Z,19.46
2022-09-12T01:32:03.225Z,20.13
2022-09-12T01:34:42.718Z,20.36
2022-09-12T01:37:22.524Z,20.51
2022-09-12T01:39:51.592Z,20.04
2022-09-12T01:42:21.079Z,19.57
2022-09-12T01:44:50.829Z,19.74
2022-09-12T01:47:27.083Z,20.27
2022-09-12T01:49:54.718Z,19.52
2022-09-12T01:52:28.499Z,19.70
2022-09-12T01:55:17.769Z,20.63
2022-09-12T01:57:47.174Z,19.96
2022-09-12T02:00:14.599Z,19.18
2022-09-12T02:03:02.988Z,19.51
2022-09-12T02:05:34.461Z,19.62
2022-09-12T02:08:01.549Z,19.27
2022-09-12T02:10:32.795Z,18.64
2022-09-12T02:13:19.226Z,18.44
2022-09-12T02:15:48.575Z,20.00
2022-09-12T02:18:17.703Z,19.01
2022-09-12T02:20:48.516Z,19.80
2022-09-12T02:23:17.692Z,19.49
2022-09-12T02:25:47.594Z,18.90
2022-09-12T02:28:22.340Z,19.64
2022-09-12T02:30:59.000Z,20.09
2022-09-12T02:33:29.815Z,20.39
2022-09-12T02:36:23.445Z,20.99
2022-09-12T02:38:50.572Z,20.61
2022-09-12T02:41:19.150Z,21.09
2022-09-12T02:43:46.684Z,20.74
2022-09-12T02:46:15.549Z,21.06
2022-09-12T02:48:43.128Z,21.09
2022-09-12T02:51:11.054Z,21.22
2022-09-12T02:53:38.168Z,21.62
2022-09-12T02:56:05.975Z,20.70
2022-09-12T02:58:33.314Z,19.58
2022-09-12T03:01:03.533Z,19.92
2022-09-12T03:03:49.424Z,19.04
2022-09-12T03:06:18.600Z,20.15
2022-09-12T03:08:54.997Z,20.16
2022-09-12T03:11:26.549Z,20.37
2022-09-12T03:14:06.216Z,20.25
2022-09-12T03:16:39.272Z,20.65
2022-09-12T03:19:12.555Z,20.05
2022-09-12T03:21:48.730Z,19.80
2022-09-12T03:24:17.236Z,20.41
2022-09-12T03:26:55.410Z,19.92
2022-09-12T03:29:22.924Z,20.01
2022-09-12T03:31:56.946Z,19.40
2022-09-12T03:34:25.211Z,20.09
2022-09-12T03:36:52.659Z,19.31
2022-09-12T03:39:20.383Z,18.57
2022-09-12T03:41:47.783Z,19.37
2022-09-12T03:44:14.938Z,19.62
2022-09-12T03:46:42.059Z,18.82
2022-09-12T03:49:10.758Z,18.80
2022-09-12T03:51:38.119Z,18.34
2022-09-12T03:54:05.643Z,18.96
2022-09-12T03:56:33.019Z,18.65
2022-09-12T03:59:00.124Z,18.78
2022-09-12T04:01:27.302Z,18.91
2022-09-12T04:03:54.744Z,18.88
2022-09-12T04:06:22.118Z,19.27
2022-09-12T04:08:50.525Z,19.14
2022-09-12T04:11:18.183Z,19.90
2022-09-12T04:13:45.453Z,19.47
2022-09-12T04:16:13.272Z,19.29
2022-09-12T04:18:40.704Z,19.69
2022-09-12T04:21:08.823Z,19.40
2022-09-12T04:23:36.021Z,20.00
2022-09-12T04:26:03.918Z,19.65
2022-09-12T04:28:32.522Z,18.24
2022-09-12T04:31:04.084Z,18.80
2022-09-12T04:33:31.638Z,19.80
2022-09-12T04:36:03.035Z,18.60
2022-09-12T04:38:30.156Z,19.18
2022-09-12T04:40:57.563Z,19.11
2022-09-12T04:43:24.683Z,19.10
2022-09-12T04:45:52.038Z,19.34
2022-09-12T04:48:19.521Z,19.85
2022-09-12T04:50:46.633Z,19.84
2022-09-12T04:53:14.878Z,19.55
2022-09-12T04:55:42.279Z,20.11
2022-09-12T04:58:09.376Z,20.63
2022-09-12T05:00:36.467Z,20.18
2022-09-12T05:03:03.860Z,20.36
2022-09-12T05:05:30.981Z,21.23
2022-09-12T05:07:58.121Z,21.47
2022-09-12T05:10:25.478Z,21.96
2022-09-12T05:12:52.689Z,21.47
2022-09-12T05:15:20.827Z,22.14
2022-09-12T05:17:48.677Z,22.60
2022-09-12T05:20:16.513Z,22.36
2022-09-12T05:22:43.642Z,22.85
2022-09-12T05:25:10.986Z,21.70
2022-09-12T05:27:38.189Z,22.32
2022-09-12T05:30:06.162Z,21.18
2022-09-12T05:32:33.712Z,21.31
2022-09-12T05:35:00.871Z,21.51
2022-09-12T05:37:28.761Z,21.84
2022-09-12T05:39:56.147Z,21.96
2022-09-12T05:42:23.514Z,20.71
2022-09-12T05:44:50.634Z,20.53
2022-09-12T05:47:18.908Z,21.01
2022-09-12T05:49:47.970Z,21.19
2022-09-12T05:52:15.140Z,21.48
2022-09-12T05:54:42.637Z,21.42
2022-09-12T05:57:09.886Z,21.90
2022-09-12T05:59:37.987Z,21.33
2022-09-12T06:02:05.408Z,20.05
2022-09-12T06:04:32.809Z,20.75
2022-09-12T06:06:59.907Z,20.95
2022-09-12T06:09:28.093Z,20.90
2022-09-12T06:11:55.991Z,20.85
2022-09-12T06:14:23.207Z,21.56
2022-09-12T06:16:52.990Z,21.36
2022-09-12T06:19:20.830Z,21.53
2022-09-12T06:21:53.407Z,21.39
2022-09-12T06:24:21.214Z,21.24
2022-09-12T06:26:48.558Z,21.21
2022-09-12T06:29:15.940Z,20.21
2022-09-12T06:31:43.718Z,20.71
2022-09-12T06:34:11.714Z,20.77
2022-09-12T06:36:39.643Z,20.48
2022-09-12T06:39:07.930Z,21.44
2022-09-12T06:41:35.040Z,20.82
2022-09-12T06:44:02.304Z,20.03
2022-09-12T06:46:30.948Z,20.98
2022-09-12T06:48:59.700Z,19.33
2022-09-12T06:51:27.573Z,19.95
2022-09-12T06:53:55.894Z,20.49
2022-09-12T06:56:23.900Z,20.27
2022-09-12T06:58:51.259Z,20.06
2022-09-12T07:01:19.648Z,20.74
2022-09-12T07:03:48.769Z,20.47
2022-09-12T07:06:16.908Z,20.37
2022-09-12T07:08:44.324Z,20.67
2022-09-12T07:11:12.593Z,20.61
2022-09-12T07:13:40.147Z,20.88
2022-09-12T07:16:07.703Z,19.87
2022-09-12T07:18:34.919Z,19.77
2022-09-12T07:21:02.420Z,20.46
2022-09-12T07:23:29.849Z,20.87
2022-09-12T07:25:57.652Z,21.19
2022-09-12T07:28:25.015Z,21.31
2022-09-12T07:30:54.000Z,21.04
2022-09-12T07:33:21.691Z,21.09
2022-09-12T07:35:49.601Z,21.84
2022-09-12T07:38:17.025Z,20.75
2022-09-12T07:40:44.217Z,21.75
2022-09-12T07:43:11.351Z,21.49
2022-09-12T07:45:41.762Z,22.28
2022-09-12T07:48:09.177Z,22.92
2022-09-12T07:50:36.780Z,22.23
2022-09-12T07:53:04.630Z,22.83
2022-09-12T07:55:31.710Z,23.72
2022-09-12T07:57:59.021Z,23.72
2022-09-12T08:00:35.696Z,21.66
2022-09-12T08:03:03.867Z,22.52
2022-09-12T08:05:31.019Z,23.05
2022-09-12T08:07:58.148Z,22.56
2022-09-12T08:10:25.533Z,22.71
2022-09-12T08:12:52.632Z,23.53
2022-09-12T08:15:20.335Z,23.37
2022-09-12T08:17:47.748Z,24.48
2022-09-12T08:20:14.993Z,24.33
2022-09-12T08:22:43.236Z,23.33
2022-09-12T08:25:10.868Z,23.64
2022-09-12T08:27:37.982Z,24.14
2022-09-12T08:30:06.181Z,23.83
2022-09-12T08:32:34.813Z,23.36
2022-09-12T08:35:01.932Z,21.94
2022-09-12T08:37:32.930Z,22.86
2022-09-12T08:40:00.370Z,22.64
2022-09-12T08:42:44.027Z,23.66
2022-09-12T08:45:17.719Z,23.71
2022-09-12T08:47:44.839Z,23.53
2022-09-12T08:50:15.373Z,23.22
2022-09-12T08:52:58.496Z,22.57
2022-09-12T08:55:27.973Z,23.09
2022-09-12T08:57:55.107Z,23.21
2022-09-12T09:00:22.629Z,23.33
2022-09-12T09:03:00.085Z,23.02
2022-09-12T09:05:34.334Z,23.96
2022-09-12T09:08:10.995Z,24.05
2022-09-12T09:10:48.828Z,24.56
2022-09-12T09:13:39.166Z,24.57
2022-09-12T09:16:09.941Z,24.72
2022-09-12T09:18:37.385Z,23.93
2022-09-12T09:21:33.652Z,24.41
2022-09-12T09:24:02.654Z,23.93
2022-09-12T09:26:33.615Z,24.52
2022-09-12T09:29:11.371Z,24.11
2022-09-12T09:31:38.795Z,24.96
2022-09-12T09:34:21.919Z,24.38
2022-09-12T09:36:50.975Z,24.23
2022-09-12T09:39:31.950Z,24.16
2022-09-12T09:42:19.293Z,24.35
2022-09-12T09:44:48.267Z,24.15
2022-09-12T09:47:15.459Z,23.73
2022-09-12T09:49:42.792Z,24.68
2022-09-12T09:52:11.478Z,25.18
2022-09-12T09:54:49.473Z,24.47
2022-09-12T09:57:37.139Z,24.71
2022-09-12T10:00:24.049Z,25.70
2022-09-12T10:03:00.923Z,24.49
2022-09-12T10:05:28.746Z,24.92
2022-09-12T10:07:56.149Z,25.58
2022-09-12T10:10:23.364Z,25.02
2022-09-12T10:12:50.525Z,25.09
2022-09-12T10:15:19.027Z,24.99
2022-09-12T10:17:47.115Z,25.53
2022-09-12T10:20:32.849Z,25.56
2022-09-12T10:23:00.566Z,24.59
2022-09-12T10:25:27.685Z,24.96
2022-09-12T10:27:56.485Z,25.80
2022-09-12T10:30:28.182Z,25.56
2022-09-12T10:33:04.846Z,25.81
2022-09-12T10:35:42.021Z,25.04
2022-09-12T10:38:22.715Z,24.91
2022-09-12T10:40:55.657Z,25.51
2022-09-12T10:43:25.992Z,25.51
2022-09-12T10:46:02.822Z,25.52
2022-09-12T10:48:31.796Z,25.50
2022-09-12T10:50:59.662Z,25.28
2022-09-12T10:53:31.106Z,24.90
2022-09-12T10:56:06.320Z,24.96
2022-09-12T10:58:36.689Z,24.81
2022-09-12T11:01:14.064Z,25.37
2022-09-12T11:03:41.169Z,24.55
2022-09-12T11:06:08.570Z,24.72
2022-09-12T11:08:51.854Z,24.50
2022-09-12T11:11:25.247Z,24.46
2022-09-12T11:13:55.289Z,24.08
2022-09-12T11:16:23.129Z,24.54
2022-09-12T11:18:53.560Z,24.32
2022-09-12T11:21:45.097Z,24.01
2022-09-12T11:24:16.215Z,23.04
2022-09-12T11:26:58.998Z,23.92
2022-09-12T11:29:26.293Z,24.43
2022-09-12T11:32:05.396Z,24.50
2022-09-12T11:34:38.866Z,24.73
2022-09-12T11:37:17.834Z,24.41
2022-09-12T11:39:45.865Z,25.16
2022-09-12T11:42:15.695Z,25.10
2022-09-12T11:44:43.778Z,25.31
2022-09-12T11:47:12.118Z,24.95
2022-09-12T11:49:49.617Z,25.15
2022-09-12T11:52:18.710Z,25.13
2022-09-12T11:55:01.244Z,25.12
2022-09-12T11:57:44.889Z,24.85
2022-09-12T12:00:17.727Z,23.90
2022-09-12T12:02:51.215Z,23.67
2022-09-12T12:05:25.498Z,24.16
2022-09-12T12:07:55.545Z,24.56
2022-09-12T12:10:26.687Z,24.58
2022-09-12T12:12:54.585Z,25.08
2022-09-12T12:15:21.726Z,24.80
2022-09-12T12:18:02.590Z,23.78
2022-09-12T12:20:30.008Z,24.80
2022-09-12T12:22:57.137Z,24.78
2022-09-12T12:25:40.996Z,24.80
2022-09-12T12:28:09.131Z,25.17
2022-09-12T12:30:36.167Z,25.12
2022-09-12T12:33:10.188Z,24.57
2022-09-12T12:35:46.746Z,24.94
2022-09-12T12:38:34.079Z,25.31
2022-09-12T12:41:16.702Z,25.01
2022-09-12T12:43:44.723Z,24.19
2022-09-12T12:46:19.218Z,24.92
2022-09-12T12:48:50.645Z,24.50
2022-09-12T12:51:27.243Z,24.15
2022-09-12T12:53:54.346Z,24.51
2022-09-12T12:56:35.603Z,24.50
2022-09-12T12:59:04.327Z,24.55
2022-09-12T13:01:31.797Z,24.87
2022-09-12T13:03:59.870Z,24.47
2022-09-12T13:06:37.057Z,25.04
2022-09-12T13:09:06.038Z,25.26
2022-09-12T13:11:39.398Z,25.84
2022-09-12T13:14:09.508Z,26.01
2022-09-12T13:16:37.613Z,25.66
2022-09-12T13:19:05.993Z,24.74
2022-09-12T13:21:33.391Z,25.34
2022-09-12T13:24:13.861Z,25.32
2022-09-12T13:26:42.915Z,26.00
2022-09-12T13:29:10.849Z,25.94
2022-09-12T13:31:38.012Z,25.70
2022-09-12T13:34:05.559Z,24.71
2022-09-12T13:36:37.468Z,25.44
2022-09-12T13:39:04.503Z,25.47
2022-09-12T13:41:38.140Z,25.26
2022-09-12T13:44:07.838Z,24.63
2022-09-12T13:46:35.335Z,25.41
2022-09-12T13:49:06.113Z,25.05
2022-09-12T13:51:33.272Z,25.07
2022-09-12T13:54:02.584Z,25.14
2022-09-12T13:56:29.884Z,25.15
2022-09-12T13:58:58.958Z,24.06
2022-09-12T14:01:42.290Z,24.90
2022-09-12T14:04:35.802Z,25.54
2022-09-12T14:07:08.152Z,25.48
2022-09-12T14:09:38.591Z,25.02
2022-09-12T14:12:11.166Z,25.15
2022-09-12T14:14:42.144Z,24.74
2022-09-12T14:17:23.808Z,25.09
2022-09-12T14:19:52.794Z,24.82
2022-09-12T14:22:19.914Z,24.95
2022-09-12T14:24:50.129Z,24.88
2022-09-12T14:27:29.114Z,24.45
2022-09-12T14:30:01.870Z,25.16
2022-09-12T14:32:29.309Z,25.43
2022-09-12T14:35:11.593Z,24.07
2022-09-12T14:37:38.996Z,24.41
2022-09-12T14:40:26.594Z,24.17
2022-09-12T14:42:56.903Z,24.19
2022-09-12T14:45:30.281Z,23.59
2022-09-12T14:47:57.643Z,24.58
2022-09-12T14:50:29.610Z,25.11
2022-09-12T14:53:06.928Z,24.60
2022-09-12T14:55:35.032Z,25.40
2022-09-12T14:58:20.242Z,25.87
2022-09-12T15:00:56.870Z,25.20
2022-09-12T15:03:31.308Z,25.53
2022-09-12T15:05:58.974Z,25.02
2022-09-12T15:08:26.101Z,25.20
2022-09-12T15:10:53.504Z,25.27
2022-09-12T15:13:22.036Z,25.04
2022-09-12T15:15:53.581Z,24.63
2022-09-12T15:18:21.335Z,25.14
2022-09-12T15:20:49.376Z,25.58
2022-09-12T15:23:38.173Z,25.12
2022-09-12T15:26:06.414Z,25.11
2022-09-12T15:28:33.631Z,25.44
2022-09-12T15:31:05.418Z,25.19
2022-09-12T15:33:33.177Z,25.37
2022-09-12T15:36:00.302Z,24.83
2022-09-12T15:38:27.639Z,25.50
2022-09-12T15:40:55.143Z,25.46
2022-09-12T15:43:22.438Z,24.56
2022-09-12T15:45:51.445Z,25.19
2022-09-12T15:48:19.190Z,25.30
2022-09-12T15:50:46.372Z,24.46
2022-09-12T15:53:15.021Z,24.86
2022-09-12T15:55:42.438Z,24.80
2022-09-12T15:58:09.524Z,24.42
2022-09-12T16:00:36.659Z,24.11
2022-09-12T16:03:04.854Z,24.32
2022-09-12T16:05:32.307Z,24.87
2022-09-12T16:07:59.512Z,24.67
2022-09-12T16:10:28.274Z,24.18
2022-09-12T16:12:55.679Z,24.39
2022-09-12T16:15:23.690Z,24.76
2022-09-12T16:17:51.276Z,23.60
2022-09-12T16:20:19.289Z,24.23
2022-09-12T16:22:46.400Z,24.13
2022-09-12T16:25:13.836Z,24.15
2022-09-12T16:27:41.147Z,23.99
2022-09-12T16:30:08.688Z,24.61
2022-09-12T16:32:36.190Z,25.20
2022-09-12T16:35:03.443Z,25.05
2022-09-12T16:37:31.172Z,24.09
2022-09-12T16:39:59.048Z,24.56
2022-09-12T16:42:26.334Z,24.73
2022-09-12T16:44:53.442Z,25.24
2022-09-12T16:47:20.816Z,25.21
2022-09-12T16:49:48.190Z,25.42
2022-09-12T16:52:16.644Z,25.78
2022-09-12T16:54:46.811Z,25.46
2022-09-12T16:57:14.053Z,24.73
2022-09-12T16:59:41.879Z,25.82
2022-09-12T17:02:12.493Z,25.84
2022-09-12T17:04:39.850Z,26.13
2022-09-12T17:07:08.115Z,25.29
2022-09-12T17:09:35.490Z,25.03
2022-09-12T17:12:02.714Z,25.46
2022-09-12T17:14:29.840Z,25.66
2022-09-12T17:16:57.203Z,25.91
2022-09-12T17:19:29.769Z,26.28
2022-09-12T17:21:57.599Z,25.98
2022-09-12T17:24:24.783Z,26.03
2022-09-12T17:26:52.045Z,26.23
2022-09-12T17:29:19.770Z,26.26
2022-09-12T17:31:46.957Z,26.50
2022-09-12T17:34:14.563Z,26.35
2022-09-12T17:36:44.465Z,26.53
2022-09-12T17:39:12.258Z,26.05
2022-09-12T17:41:39.496Z,26.63
2022-09-12T17:44:07.654Z,26.10
2022-09-12T17:46:37.121Z,25.37
2022-09-12T17:49:05.777Z,25.27
2022-09-12T17:51:33.390Z,25.41
2022-09-12T17:54:01.495Z,25.24
2022-09-12T17:56:29.632Z,24.93
2022-09-12T17:58:57.414Z,24.70
2022-09-12T18:01:44.020Z,24.54
2022-09-12T18:04:11.548Z,25.02
2022-09-12T18:06:40.215Z,24.89
2022-09-12T18:09:08.865Z,25.03
2022-09-12T18:11:36.913Z,25.16
2022-09-12T18:14:04.434Z,24.93
2022-09-12T18:16:32.197Z,24.85
2022-09-12T18:19:01.719Z,24.91
2022-09-12T18:21:29.218Z,25.35
2022-09-12T18:23:59.218Z,25.06
2022-09-12T18:26:27.433Z,25.17
2022-09-12T18:28:55.057Z,25.16
2022-09-12T18:31:24.039Z,24.81
2022-09-12T18:33:52.015Z,24.89
2022-09-12T18:36:21.076Z,24.40
2022-09-12T18:38:49.231Z,24.24
2022-09-12T18:41:17.882Z,24.79
2022-09-12T18:43:45.908Z,24.89
2022-09-12T18:46:14.321Z,24.47
2022-09-12T18:48:44.535Z,24.39
2022-09-12T18:51:12.462Z,24.00
2022-09-12T18:53:40.247Z,23.37
2022-09-12T18:56:09.758Z,23.62
2022-09-12T18:58:37.998Z,24.20
2022-09-12T19:01:15.891Z,24.44
2022-09-12T19:03:44.080Z,24.80
2022-09-12T19:06:17.441Z,24.75
2022-09-12T19:08:45.310Z,24.60
2022-09-12T19:11:12.849Z,24.61
2022-09-12T19:13:41.637Z,24.68
2022-09-12T19:16:11.843Z,24.50
2022-09-12T19:18:40.051Z,24.61
2022-09-12T19:21:08.571Z,24.75
2022-09-12T19:23:36.515Z,24.75
2022-09-12T19:26:05.320Z,24.57
2022-09-12T19:28:34.509Z,24.51
2022-09-12T19:31:06.801Z,24.20
2022-09-12T19:33:34.831Z,24.50
2022-09-12T19:36:03.584Z,24.22
2022-09-12T19:38:31.921Z,24.20
2022-09-12T19:40:59.983Z,24.06
2022-09-12T19:43:27.733Z,24.08
2022-09-12T19:45:55.961Z,24.11
2022-09-12T19:48:23.572Z,24.08
2022-09-12T19:50:51.054Z,24.10
2022-09-12T19:53:18.613Z,23.95
2022-09-12T19:55:46.203Z,23.88
2022-09-12T19:58:13.784Z,23.97
2022-09-12T20:00:41.244Z,23.98
2022-09-12T20:03:09.027Z,23.96
2022-09-12T20:05:40.745Z,23.88
2022-09-12T20:08:09.966Z,23.89
2022-09-12T20:10:37.387Z,23.98
2022-09-12T20:13:05.408Z,24.02
2022-09-12T20:15:32.786Z,23.72
2022-09-12T20:18:00.127Z,23.68
2022-09-12T20:20:27.563Z,23.76
2022-09-12T20:22:54.946Z,23.74
2022-09-12T20:25:22.084Z,23.58
2022-09-12T20:27:49.396Z,23.67
2022-09-12T20:30:17.113Z,23.53
2022-09-12T20:32:44.247Z,23.57
2022-09-12T20:35:11.439Z,23.78
2022-09-12T20:37:40.464Z,23.73
2022-09-12T20:40:08.561Z,23.85
2022-09-12T20:42:36.076Z,23.97
2022-09-12T20:45:04.526Z,23.85
2022-09-12T20:47:31.728Z,23.97
2022-09-12T20:49:58.876Z,23.95
2022-09-12T20:52:27.254Z,23.87
2022-09-12T20:54:54.378Z,23.75
2022-09-12T20:57:21.500Z,23.86
2022-09-12T20:59:48.923Z,23.87
2022-09-12T21:02:16.317Z,23.75
2022-09-12T21:04:43.614Z,23.73
2022-09-12T21:07:10.982Z,23.46
2022-09-12T21:09:38.108Z,23.71
2022-09-12T21:12:05.325Z,23.48
2022-09-12T21:14:32.698Z,23.49
2022-09-12T21:16:59.806Z,23.37
2022-09-12T21:19:26.963Z,23.43
2022-09-12T21:21:54.420Z,23.52
2022-09-12T21:24:21.581Z,23.51
2022-09-12T21:26:48.826Z,23.52
2022-09-12T21:29:16.184Z,23.40
2022-09-12T21:31:43.461Z,23.29
2022-09-12T21:34:10.599Z,23.15
2022-09-12T21:36:38.017Z,23.09
2022-09-12T21:39:05.345Z,23.10
2022-09-12T21:41:32.480Z,23.21
2022-09-12T21:43:59.897Z,23.21
2022-09-12T21:46:27.077Z,23.05
2022-09-12T21:48:54.252Z,23.03
2022-09-12T21:51:21.639Z,23.00
2022-09-12T21:53:48.811Z,23.12
2022-09-12T21:56:15.947Z,23.05
2022-09-12T21:58:43.934Z,23.25
2022-09-12T22:01:13.901Z,23.25
2022-09-12T22:03:43.098Z,23.10
2022-09-12T22:06:10.217Z,23.09
2022-09-12T22:08:38.739Z,22.95
2022-09-12T22:11:09.404Z,22.91
2022-09-12T22:13:37.486Z,22.93
2022-09-12T22:16:05.041Z,22.87
2022-09-12T22:18:33.046Z,22.94
2022-09-12T22:21:06.796Z,22.93
2022-09-12T22:23:53.035Z,22.78
2022-09-12T22:26:20.475Z,22.67
2022-09-12T22:28:48.038Z,22.63
2022-09-12T22:31:15.299Z,22.44
2022-09-12T22:33:42.624Z,22.66
2022-09-12T22:36:10.039Z,22.77
2022-09-12T22:38:37.247Z,22.65
2022-09-12T22:41:08.226Z,22.66
2022-09-12T22:43:35.670Z,22.69
2022-09-12T22:46:05.809Z,22.54
2022-09-12T22:48:32.956Z,22.52
2022-09-12T22:51:00.338Z,22.56
2022-09-12T22:53:27.436Z,22.36
2022-09-12T22:55:54.546Z,22.38
2022-09-12T22:58:21.940Z,22.28
2022-09-12T23:00:50.241Z,22.25
2022-09-12T23:03:17.627Z,22.23
2022-09-12T23:05:45.400Z,22.27
2022-09-12T23:08:12.798Z,22.17
2022-09-12T23:10:40.168Z,22.18
2022-09-12T23:13:07.561Z,22.28
2022-09-12T23:15:34.640Z,22.10
2022-09-12T23:18:05.033Z,22.08
2022-09-12T23:20:32.707Z,22.15
2022-09-12T23:22:59.874Z,22.19
2022-09-12T23:25:26.994Z,22.01
2022-09-12T23:27:54.392Z,21.94
2022-09-12T23:30:21.637Z,21.89
2022-09-12T23:32:49.037Z,21.92
2022-09-12T23:35:18.428Z,21.98
2022-09-12T23:37:46.213Z,21.87
2022-09-12T23:40:13.673Z,21.74
2022-09-12T23:42:41.252Z,21.82
2022-09-12T23:45:08.708Z,21.84
2022-09-12T23:47:35.820Z,21.92
2022-09-12T23:50:03.556Z,21.84
2022-09-12T23:52:30.919Z,21.84
2022-09-12T23:54:58.049Z,21.84
2022-09-12T23:57:25.441Z,21.83
2022-09-12T23:59:52.556Z,21.81
